sensor_id;sensor_type;location;lat;lon;timestamp;pressure;altitude;pressure_sealevel;temperature;humidity
5996;BME280;3026;53.612;7.278;2023-12-20T00:02:26;100952.84;;;6.89;100.00
5996;BME280;3026;53.612;7.278;2023-12-20T00:04:56;100950.16;;;6.89;100.00
5996;BME280;3026;53.612;7.278;2023-12-20T00:07:23;100934.88;;;6.88;100.00
5996;BME280;3026;53.612;7.278;2023-12-20T00:09:50;100942.00;;;6.89;100.00
5996;BME280;3026;53.612;7.278;2023-12-20T00:12:17;100940.31;;;6.88;100.00
5996;BME280;3026;53.612;7.278;2023-12-20T00:14:44;100936.91;;;6.86;100.00
5996;BME280;3026;53.612;7.278;2023-12-20T00:17:12;100924.34;;;6.85;100.00
5996;BME280;3026;53.612;7.278;2023-12-20T00:19:40;100929.78;;;6.85;100.00
5996;BME280;3026;53.612;7.278;2023-12-20T00:22:10;100922.63;;;6.84;100.00
5996;BME280;3026;53.612;7.278;2023-12-20T00:24:37;100921.91;;;6.82;100.00
5996;BME280;3026;53.612;7.278;2023-12-20T00:27:04;100913.94;;;6.81;100.00
5996;BME280;3026;53.612;7.278;2023-12-20T00:29:33;100908.97;;;6.76;100.00
5996;BME280;3026;53.612;7.278;2023-12-20T00:32:01;100920.66;;;6.77;100.00
5996;BME280;3026;53.612;7.278;2023-12-20T00:34:28;100926.94;;;6.77;100.00
5996;BME280;3026;53.612;7.278;2023-12-20T00:36:55;100917.78;;;6.78;100.00
5996;BME280;3026;53.612;7.278;2023-12-20T00:39:24;100918.66;;;6.79;100.00
5996;BME280;3026;53.612;7.278;2023-12-20T00:41:53;100905.25;;;6.77;100.00
5996;BME280;3026;53.612;7.278;2023-12-20T00:44:20;100916.66;;;6.71;100.00
5996;BME280;3026;53.612;7.278;2023-12-20T00:46:47;100909.28;;;6.63;100.00
5996;BME280;3026;53.612;7.278;2023-12-20T00:49:14;100904.28;;;6.59;100.00
5996;BME280;3026;53.612;7.278;2023-12-20T00:51:43;100901.31;;;6.52;100.00
5996;BME280;3026;53.612;7.278;2023-12-20T00:54:10;100895.59;;;6.46;100.00
5996;BME280;3026;53.612;7.278;2023-12-20T00:56:39;100894.19;;;6.41;100.00
5996;BME280;3026;53.612;7.278;2023-12-20T00:59:06;100899.91;;;6.38;100.00
5996;BME280;3026;53.612;7.278;2023-12-20T01:01:33;100896.47;;;6.36;100.00
5996;BME280;3026;53.612;7.278;2023-12-20T01:04:00;100892.34;;;6.32;100.00
5996;BME280;3026;53.612;7.278;2023-12-20T01:06:28;100893.34;;;6.31;100.00
5996;BME280;3026;53.612;7.278;2023-12-20T01:08:56;100887.94;;;6.31;100.00
5996;BME280;3026;53.612;7.278;2023-12-20T01:11:24;100882.22;;;6.34;100.00
5996;BME280;3026;53.612;7.278;2023-12-20T01:13:52;100875.53;;;6.38;100.00
5996;BME280;3026;53.612;7.278;2023-12-20T01:16:22;100875.94;;;6.43;100.00
5996;BME280;3026;53.612;7.278;2023-12-20T01:18:49;100871.94;;;6.48;100.00
5996;BME280;3026;53.612;7.278;2023-12-20T01:21:16;100869.66;;;6.53;100.00
5996;BME280;3026;53.612;7.278;2023-12-20T01:23:43;100881.91;;;6.57;100.00
5996;BME280;3026;53.612;7.278;2023-12-20T01:26:11;100874.47;;;6.59;100.00
5996;BME280;3026;53.612;7.278;2023-12-20T01:28:38;100873.63;;;6.58;100.00
5996;BME280;3026;53.612;7.278;2023-12-20T01:31:07;100872.75;;;6.58;100.00
5996;BME280;3026;53.612;7.278;2023-12-20T01:33:34;100865.63;;;6.57;100.00
5996;BME280;3026;53.612;7.278;2023-12-20T01:36:02;100875.63;;;6.56;100.00
5996;BME280;3026;53.612;7.278;2023-12-20T01:38:30;100881.91;;;6.57;100.00
5996;BME280;3026;53.612;7.278;2023-12-20T01:40:57;100881.91;;;6.57;100.00
5996;BME280;3026;53.612;7.278;2023-12-20T01:43:26;100869.06;;;6.59;100.00
5996;BME280;3026;53.612;7.278;2023-12-20T01:45:55;100864.22;;;6.62;100.00
5996;BME280;3026;53.612;7.278;2023-12-20T01:48:24;100863.22;;;6.63;100.00
5996;BME280;3026;53.612;7.278;2023-12-20T01:50:53;100858.66;;;6.64;100.00
5996;BME280;3026;53.612;7.278;2023-12-20T01:53:23;100856.94;;;6.63;100.00
5996;BME280;3026;53.612;7.278;2023-12-20T01:55:54;100848.81;;;6.63;100.00
5996;BME280;3026;53.612;7.278;2023-12-20T01:58:21;100849.97;;;6.60;100.00
5996;BME280;3026;53.612;7.278;2023-12-20T02:00:50;100853.38;;;6.62;100.00
5996;BME280;3026;53.612;7.278;2023-12-20T02:03:18;100859.66;;;6.63;100.00
5996;BME280;3026;53.612;7.278;2023-12-20T02:05:47;100854.22;;;6.63;100.00
5996;BME280;3026;53.612;7.278;2023-12-20T02:08:15;100852.22;;;6.65;100.00
5996;BME280;3026;53.612;7.278;2023-12-20T02:10:43;100841.38;;;6.65;100.00
5996;BME280;3026;53.612;7.278;2023-12-20T02:13:10;100843.09;;;6.66;100.00
5996;BME280;3026;53.612;7.278;2023-12-20T02:15:37;100843.09;;;6.66;100.00
5996;BME280;3026;53.612;7.278;2023-12-20T02:18:05;100823.44;;;6.64;100.00
5996;BME280;3026;53.612;7.278;2023-12-20T02:20:33;100830.56;;;6.65;100.00
5996;BME280;3026;53.612;7.278;2023-12-20T02:23:02;100823.13;;;6.67;100.00
5996;BME280;3026;53.612;7.278;2023-12-20T02:25:29;100817.41;;;6.70;100.00
5996;BME280;3026;53.612;7.278;2023-12-20T02:27:56;100824.25;;;6.74;100.00
5996;BME280;3026;53.612;7.278;2023-12-20T02:30:26;100822.25;;;6.76;100.00
5996;BME280;3026;53.612;7.278;2023-12-20T02:32:53;100814.28;;;6.65;100.00
5996;BME280;3026;53.612;7.278;2023-12-20T02:35:21;100809.59;;;6.57;100.00
5996;BME280;3026;53.612;7.278;2023-12-20T02:37:49;100799.91;;;6.55;100.00
5996;BME280;3026;53.612;7.278;2023-12-20T02:40:19;100803.03;;;6.60;100.00
5996;BME280;3026;53.612;7.278;2023-12-20T02:42:46;100807.16;;;6.64;100.00
5996;BME280;3026;53.612;7.278;2023-12-20T02:45:15;100804.84;;;6.69;100.00
5996;BME280;3026;53.612;7.278;2023-12-20T02:47:42;100806.44;;;6.71;100.00
5996;BME280;3026;53.612;7.278;2023-12-20T02:50:09;100805.28;;;6.74;100.00
5996;BME280;3026;53.612;7.278;2023-12-20T02:52:37;100803.28;;;6.76;100.00
5996;BME280;3026;53.612;7.278;2023-12-20T02:55:05;100790.25;;;6.80;100.00
5996;BME280;3026;53.612;7.278;2023-12-20T02:57:36;100792.81;;;6.81;100.00
5996;BME280;3026;53.612;7.278;2023-12-20T03:00:08;100776.28;;;6.84;100.00
5996;BME280;3026;53.612;7.278;2023-12-20T03:02:36;100771.88;;;6.83;100.00
5996;BME280;3026;53.612;7.278;2023-12-20T03:05:05;100770.13;;;6.82;100.00
5996;BME280;3026;53.612;7.278;2023-12-20T03:07:32;100773.69;;;6.83;100.00
5996;BME280;3026;53.612;7.278;2023-12-20T03:09:59;100765.44;;;6.84;100.00
5996;BME280;3026;53.612;7.278;2023-12-20T03:12:28;100774.59;;;6.83;100.00
5996;BME280;3026;53.612;7.278;2023-12-20T03:14:57;100761.31;;;6.80;100.00
5996;BME280;3026;53.612;7.278;2023-12-20T03:17:23;100778.88;;;6.76;100.00
5996;BME280;3026;53.612;7.278;2023-12-20T03:19:57;100776.31;;;6.75;100.00
5996;BME280;3026;53.612;7.278;2023-12-20T03:22:26;100782.28;;;6.78;100.00
5996;BME280;3026;53.612;7.278;2023-12-20T03:24:53;100767.72;;;6.79;100.00
5996;BME280;3026;53.612;7.278;2023-12-20T03:27:20;100766.88;;;6.79;100.00
5996;BME280;3026;53.612;7.278;2023-12-20T03:29:47;100769.59;;;6.79;100.00
5996;BME280;3026;53.612;7.278;2023-12-20T03:32:17;100762.31;;;6.79;100.00
5996;BME280;3026;53.612;7.278;2023-12-20T03:34:45;100752.63;;;6.77;100.00
5996;BME280;3026;53.612;7.278;2023-12-20T03:37:14;100766.34;;;6.75;100.00
5996;BME280;3026;53.612;7.278;2023-12-20T03:39:41;100745.66;;;6.74;100.00
5996;BME280;3026;53.612;7.278;2023-12-20T03:42:08;100752.09;;;6.73;100.00
5996;BME280;3026;53.612;7.278;2023-12-20T03:44:38;100748.38;;;6.74;100.00
5996;BME280;3026;53.612;7.278;2023-12-20T03:47:06;100732.66;;;6.78;100.00
5996;BME280;3026;53.612;7.278;2023-12-20T03:49:34;100730.09;;;6.76;100.00
5996;BME280;3026;53.612;7.278;2023-12-20T03:52:05;100734.97;;;6.72;100.00
5996;BME280;3026;53.612;7.278;2023-12-20T03:54:33;100736.97;;;6.70;100.00
5996;BME280;3026;53.612;7.278;2023-12-20T03:57:01;100735.84;;;6.73;100.00
5996;BME280;3026;53.612;7.278;2023-12-20T03:59:30;100737.22;;;6.77;100.00
5996;BME280;3026;53.612;7.278;2023-12-20T04:01:57;100733.19;;;6.81;100.00
5996;BME280;3026;53.612;7.278;2023-12-20T04:04:24;100714.97;;;6.83;100.00
5996;BME280;3026;53.612;7.278;2023-12-20T04:06:56;100727.50;;;6.84;100.00
5996;BME280;3026;53.612;7.278;2023-12-20T04:09:23;100727.50;;;6.84;100.00
5996;BME280;3026;53.612;7.278;2023-12-20T04:11:51;100722.78;;;6.86;100.00
5996;BME280;3026;53.612;7.278;2023-12-20T04:14:18;100726.19;;;6.88;100.00
5996;BME280;3026;53.612;7.278;2023-12-20T04:16:45;100730.28;;;6.92;100.00
5996;BME280;3026;53.612;7.278;2023-12-20T04:19:12;100731.72;;;6.96;100.00
5996;BME280;3026;53.612;7.278;2023-12-20T04:21:40;100731.09;;;7.02;100.00
5996;BME280;3026;53.612;7.278;2023-12-20T04:24:10;100727.94;;;7.07;100.00
5996;BME280;3026;53.612;7.278;2023-12-20T04:26:37;100723.03;;;7.11;100.00
5996;BME280;3026;53.612;7.278;2023-12-20T04:29:05;100728.16;;;7.14;100.00
5996;BME280;3026;53.612;7.278;2023-12-20T04:31:32;100715.28;;;7.16;100.00
5996;BME280;3026;53.612;7.278;2023-12-20T04:34:00;100711.28;;;7.20;100.00
5996;BME280;3026;53.612;7.278;2023-12-20T04:36:27;100708.56;;;7.20;100.00
5996;BME280;3026;53.612;7.278;2023-12-20T04:38:56;100713.00;;;7.21;100.00
5996;BME280;3026;53.612;7.278;2023-12-20T04:41:26;100710.97;;;7.23;100.00
5996;BME280;3026;53.612;7.278;2023-12-20T04:43:54;100710.97;;;7.23;100.00
5996;BME280;3026;53.612;7.278;2023-12-20T04:46:23;100715.53;;;7.22;100.00
5996;BME280;3026;53.612;7.278;2023-12-20T04:48:52;100715.53;;;7.22;100.00
5996;BME280;3026;53.612;7.278;2023-12-20T04:51:20;100715.69;;;7.21;100.00
5996;BME280;3026;53.612;7.278;2023-12-20T04:53:48;100716.38;;;7.23;100.00
5996;BME280;3026;53.612;7.278;2023-12-20T04:56:15;100722.66;;;7.23;100.00
5996;BME280;3026;53.612;7.278;2023-12-20T04:58:49;100714.38;;;7.25;100.00
5996;BME280;3026;53.612;7.278;2023-12-20T05:01:17;100723.19;;;7.27;100.00
5996;BME280;3026;53.612;7.278;2023-12-20T05:03:44;100727.63;;;7.28;100.00
5996;BME280;3026;53.612;7.278;2023-12-20T05:06:11;100725.22;;;7.25;100.00
5996;BME280;3026;53.612;7.278;2023-12-20T05:08:38;100711.81;;;7.23;100.00
5996;BME280;3026;53.612;7.278;2023-12-20T05:11:06;100718.09;;;7.24;100.00
5996;BME280;3026;53.612;7.278;2023-12-20T05:13:34;100723.53;;;7.24;100.00
5996;BME280;3026;53.612;7.278;2023-12-20T05:16:03;100718.09;;;7.24;100.00
5996;BME280;3026;53.612;7.278;2023-12-20T05:18:31;100700.13;;;7.23;100.00
5996;BME280;3026;53.612;7.278;2023-12-20T05:20:58;100704.84;;;7.21;100.00
5996;BME280;3026;53.612;7.278;2023-12-20T05:23:27;100696.72;;;7.21;100.00
5996;BME280;3026;53.612;7.278;2023-12-20T05:25:56;100711.28;;;7.20;100.00
5996;BME280;3026;53.612;7.278;2023-12-20T05:28:24;100695.03;;;7.20;100.00
5996;BME280;3026;53.612;7.278;2023-12-20T05:30:57;100697.88;;;7.18;100.00
5996;BME280;3026;53.612;7.278;2023-12-20T05:33:25;100691.59;;;7.18;100.00
5996;BME280;3026;53.612;7.278;2023-12-20T05:35:55;100692.31;;;7.20;100.00
5996;BME280;3026;53.612;7.278;2023-12-20T05:38:22;100689.59;;;7.20;100.00
5996;BME280;3026;53.612;7.278;2023-12-20T05:40:49;100671.31;;;7.22;100.00
5996;BME280;3026;53.612;7.278;2023-12-20T05:43:16;100679.44;;;7.22;100.00
5996;BME280;3026;53.612;7.278;2023-12-20T05:45:43;100677.72;;;7.21;100.00
5996;BME280;3026;53.612;7.278;2023-12-20T05:48:10;100677.41;;;7.24;100.00
5996;BME280;3026;53.612;7.278;2023-12-20T05:50:39;100684.53;;;7.25;100.00
5996;BME280;3026;53.612;7.278;2023-12-20T05:53:06;100682.38;;;7.28;100.00
5996;BME280;3026;53.612;7.278;2023-12-20T05:55:34;100685.78;;;7.30;100.00
5996;BME280;3026;53.612;7.278;2023-12-20T05:58:01;100670.38;;;7.31;100.00
5996;BME280;3026;53.612;7.278;2023-12-20T06:00:29;100667.34;;;7.34;100.00
5996;BME280;3026;53.612;7.278;2023-12-20T06:02:55;100660.91;;;7.35;100.00
5996;BME280;3026;53.612;7.278;2023-12-20T06:05:24;100658.88;;;7.37;100.00
5996;BME280;3026;53.612;7.278;2023-12-20T06:07:52;100656.88;;;7.39;100.00
5996;BME280;3026;53.612;7.278;2023-12-20T06:10:23;100657.59;;;7.41;100.00
5996;BME280;3026;53.612;7.278;2023-12-20T06:12:51;100645.72;;;7.42;100.00
5996;BME280;3026;53.612;7.278;2023-12-20T06:15:19;100648.28;;;7.44;100.00
5996;BME280;3026;53.612;7.278;2023-12-20T06:17:46;100643.69;;;7.44;100.00
5996;BME280;3026;53.612;7.278;2023-12-20T06:20:14;100641.00;;;7.44;100.00
5996;BME280;3026;53.612;7.278;2023-12-20T06:22:41;100636.41;;;7.45;100.00
5996;BME280;3026;53.612;7.278;2023-12-20T06:25:10;100634.56;;;7.45;100.00
5996;BME280;3026;53.612;7.278;2023-12-20T06:27:37;100630.13;;;7.44;100.00
5996;BME280;3026;53.612;7.278;2023-12-20T06:30:06;100632.84;;;7.44;100.00
5996;BME280;3026;53.612;7.278;2023-12-20T06:32:35;100618.28;;;7.45;100.00
5996;BME280;3026;53.612;7.278;2023-12-20T06:35:04;100612.84;;;7.45;100.00
5996;BME280;3026;53.612;7.278;2023-12-20T06:37:34;100612.84;;;7.45;100.00
5996;BME280;3026;53.612;7.278;2023-12-20T06:40:01;100598.28;;;7.46;100.00
5996;BME280;3026;53.612;7.278;2023-12-20T06:42:30;100614.56;;;7.46;100.00
5996;BME280;3026;53.612;7.278;2023-12-20T06:44:58;100591.16;;;7.45;100.00
5996;BME280;3026;53.612;7.278;2023-12-20T06:47:25;100583.84;;;7.46;100.00
5996;BME280;3026;53.612;7.278;2023-12-20T06:49:52;100582.00;;;7.46;100.00
5996;BME280;3026;53.612;7.278;2023-12-20T06:52:19;100573.84;;;7.46;100.00
5996;BME280;3026;53.612;7.278;2023-12-20T06:54:47;100568.28;;;7.48;100.00
5996;BME280;3026;53.612;7.278;2023-12-20T06:57:15;100567.41;;;7.47;100.00
5996;BME280;3026;53.612;7.278;2023-12-20T06:59:44;100551.13;;;7.47;100.00
5996;BME280;3026;53.612;7.278;2023-12-20T07:02:13;100554.88;;;7.46;100.00
5996;BME280;3026;53.612;7.278;2023-12-20T07:04:40;100558.28;;;7.48;100.00
5996;BME280;3026;53.612;7.278;2023-12-20T07:07:09;100561.13;;;7.47;100.00
5996;BME280;3026;53.612;7.278;2023-12-20T07:09:36;100559.59;;;7.44;100.00
5996;BME280;3026;53.612;7.278;2023-12-20T07:12:07;100564.03;;;7.45;100.00
5996;BME280;3026;53.612;7.278;2023-12-20T07:14:35;100556.56;;;7.47;100.00
5996;BME280;3026;53.612;7.278;2023-12-20T07:17:05;100558.09;;;7.50;100.00
5996;BME280;3026;53.612;7.278;2023-12-20T07:19:37;100555.38;;;7.50;100.00
5996;BME280;3026;53.612;7.278;2023-12-20T07:22:05;100552.50;;;7.51;100.00
5996;BME280;3026;53.612;7.278;2023-12-20T07:24:32;100564.09;;;7.53;100.00
5996;BME280;3026;53.612;7.278;2023-12-20T07:27:00;100563.06;;;7.54;100.00
5996;BME280;3026;53.612;7.278;2023-12-20T07:29:27;100556.47;;;7.57;100.00
5996;BME280;3026;53.612;7.278;2023-12-20T07:31:54;100552.75;;;7.58;100.00
5996;BME280;3026;53.612;7.278;2023-12-20T07:34:23;100560.72;;;7.59;100.00
5996;BME280;3026;53.612;7.278;2023-12-20T07:36:50;100557.84;;;7.61;100.00
5996;BME280;3026;53.612;7.278;2023-12-20T07:39:17;100550.38;;;7.63;100.00
5996;BME280;3026;53.612;7.278;2023-12-20T07:41:44;100551.22;;;7.64;100.00
5996;BME280;3026;53.612;7.278;2023-12-20T07:44:13;100549.22;;;7.66;100.00
5996;BME280;3026;53.612;7.278;2023-12-20T07:46:41;100561.78;;;7.67;100.00
5996;BME280;3026;53.612;7.278;2023-12-20T07:49:08;100561.63;;;7.68;100.00
5996;BME280;3026;53.612;7.278;2023-12-20T07:51:37;100554.66;;;7.66;100.00
5996;BME280;3026;53.612;7.278;2023-12-20T07:54:04;100561.09;;;7.65;100.00
5996;BME280;3026;53.612;7.278;2023-12-20T07:56:33;100636.75;;;7.68;100.00
5996;BME280;3026;53.612;7.278;2023-12-20T07:59:01;100640.75;;;7.55;100.00
5996;BME280;3026;53.612;7.278;2023-12-20T08:01:28;100648.34;;;7.34;100.00
5996;BME280;3026;53.612;7.278;2023-12-20T08:03:55;100652.22;;;7.14;100.00
5996;BME280;3026;53.612;7.278;2023-12-20T08:06:22;100643.78;;;6.99;100.00
5996;BME280;3026;53.612;7.278;2023-12-20T08:08:52;100662.84;;;6.89;100.00
5996;BME280;3026;53.612;7.278;2023-12-20T08:11:19;100657.31;;;6.81;100.00
5996;BME280;3026;53.612;7.278;2023-12-20T08:13:47;100667.09;;;6.74;100.00
5996;BME280;3026;53.612;7.278;2023-12-20T08:16:14;100650.56;;;6.67;100.00
5996;BME280;3026;53.612;7.278;2023-12-20T08:18:44;100644.91;;;6.61;100.00
5996;BME280;3026;53.612;7.278;2023-12-20T08:21:11;100648.38;;;6.53;100.00
5996;BME280;3026;53.612;7.278;2023-12-20T08:23:38;100646.13;;;6.49;100.00
5996;BME280;3026;53.612;7.278;2023-12-20T08:26:08;100644.00;;;6.42;100.00
5996;BME280;3026;53.612;7.278;2023-12-20T08:28:36;100640.75;;;6.39;100.00
5996;BME280;3026;53.612;7.278;2023-12-20T08:31:04;100632.78;;;6.37;100.00
5996;BME280;3026;53.612;7.278;2023-12-20T08:33:31;100641.88;;;6.36;100.00
5996;BME280;3026;53.612;7.278;2023-12-20T08:35:59;100641.03;;;6.36;100.00
5996;BME280;3026;53.612;7.278;2023-12-20T08:38:26;100653.88;;;6.34;100.00
5996;BME280;3026;53.612;7.278;2023-12-20T08:40:53;100648.78;;;6.31;100.00
5996;BME280;3026;53.612;7.278;2023-12-20T08:43:22;100644.53;;;6.28;100.00
5996;BME280;3026;53.612;7.278;2023-12-20T08:45:49;100659.06;;;6.27;100.00
5996;BME280;3026;53.612;7.278;2023-12-20T08:48:16;100644.53;;;6.28;100.00
5996;BME280;3026;53.612;7.278;2023-12-20T08:50:43;100647.22;;;6.28;100.00
5996;BME280;3026;53.612;7.278;2023-12-20T08:53:11;100646.22;;;6.29;100.00
5996;BME280;3026;53.612;7.278;2023-12-20T08:55:38;100629.97;;;6.29;100.00
5996;BME280;3026;53.612;7.278;2023-12-20T08:58:06;100647.91;;;6.30;100.00
5996;BME280;3026;53.612;7.278;2023-12-20T09:00:38;100642.50;;;6.30;100.00
5996;BME280;3026;53.612;7.278;2023-12-20T09:03:05;100649.63;;;6.31;100.00
5996;BME280;3026;53.612;7.278;2023-12-20T09:05:34;100651.31;;;6.32;100.00
5996;BME280;3026;53.612;7.278;2023-12-20T09:08:02;100651.03;;;6.35;100.00
5996;BME280;3026;53.612;7.278;2023-12-20T09:10:30;100659.88;;;6.37;100.00
5996;BME280;3026;53.612;7.278;2023-12-20T09:12:57;100647.31;;;6.36;100.00
5996;BME280;3026;53.612;7.278;2023-12-20T09:15:26;100655.44;;;6.36;100.00
5996;BME280;3026;53.612;7.278;2023-12-20T09:17:57;100660.16;;;6.34;100.00
5996;BME280;3026;53.612;7.278;2023-12-20T09:20:24;100654.72;;;6.34;100.00
5996;BME280;3026;53.612;7.278;2023-12-20T09:22:53;100667.28;;;6.35;100.00
5996;BME280;3026;53.612;7.278;2023-12-20T09:25:21;100683.50;;;6.35;100.00
5996;BME280;3026;53.612;7.278;2023-12-20T09:27:48;100676.41;;;6.34;100.00
5996;BME280;3026;53.612;7.278;2023-12-20T09:30:17;100688.66;;;6.38;100.00
5996;BME280;3026;53.612;7.278;2023-12-20T09:32:45;100696.78;;;6.38;100.00
5996;BME280;3026;53.612;7.278;2023-12-20T09:35:15;100701.75;;;6.43;100.00
5996;BME280;3026;53.612;7.278;2023-12-20T09:37:43;100698.56;;;6.48;100.00
5996;BME280;3026;53.612;7.278;2023-12-20T09:40:13;100719.13;;;6.50;100.00
5996;BME280;3026;53.612;7.278;2023-12-20T09:42:48;100712.22;;;6.56;100.00
5996;BME280;3026;53.612;7.278;2023-12-20T09:45:20;100722.75;;;6.59;100.00
5996;BME280;3026;53.612;7.278;2023-12-20T09:47:50;100725.88;;;6.64;100.00
5996;BME280;3026;53.612;7.278;2023-12-20T09:50:20;100716.44;;;6.68;100.00
5996;BME280;3026;53.612;7.278;2023-12-20T09:52:50;100725.00;;;6.73;100.00
5996;BME280;3026;53.612;7.278;2023-12-20T09:55:17;100718.94;;;6.79;100.00
5996;BME280;3026;53.612;7.278;2023-12-20T09:57:45;100705.81;;;6.84;100.00
5996;BME280;3026;53.612;7.278;2023-12-20T10:00:13;100723.16;;;6.91;100.00
5996;BME280;3026;53.612;7.278;2023-12-20T10:02:45;100733.41;;;6.97;100.00
5996;BME280;3026;53.612;7.278;2023-12-20T10:05:17;100736.19;;;7.06;100.00
5996;BME280;3026;53.612;7.278;2023-12-20T10:07:47;100741.88;;;7.12;100.00
5996;BME280;3026;53.612;7.278;2023-12-20T10:10:15;100733.25;;;7.17;100.00
5996;BME280;3026;53.612;7.278;2023-12-20T10:13:01;100736.69;;;7.19;100.00
5996;BME280;3026;53.612;7.278;2023-12-20T10:15:28;100740.81;;;7.23;100.00
5996;BME280;3026;53.612;7.278;2023-12-20T10:17:57;100737.19;;;7.32;100.00
5996;BME280;3026;53.612;7.278;2023-12-20T10:20:25;100742.53;;;7.42;100.00
5996;BME280;3026;53.612;7.278;2023-12-20T10:22:56;100749.50;;;7.44;100.00
5996;BME280;3026;53.612;7.278;2023-12-20T10:25:24;100743.38;;;7.42;100.00
5996;BME280;3026;53.612;7.278;2023-12-20T10:28:09;100745.38;;;7.40;100.00
5996;BME280;3026;53.612;7.278;2023-12-20T10:30:37;100740.25;;;7.37;100.00
5996;BME280;3026;53.612;7.278;2023-12-20T10:33:06;100726.00;;;7.35;100.00
5996;BME280;3026;53.612;7.278;2023-12-20T10:35:33;100731.44;;;7.35;100.00
5996;BME280;3026;53.612;7.278;2023-12-20T10:38:05;100713.78;;;7.31;100.00
5996;BME280;3026;53.612;7.278;2023-12-20T10:40:35;100720.91;;;7.32;100.00
5996;BME280;3026;53.612;7.278;2023-12-20T10:43:09;100719.56;;;7.36;100.00
5996;BME280;3026;53.612;7.278;2023-12-20T10:45:37;100734.75;;;7.47;100.00
5996;BME280;3026;53.612;7.278;2023-12-20T10:48:05;100760.13;;;7.55;100.00
5996;BME280;3026;53.612;7.278;2023-12-20T10:50:33;100755.72;;;7.54;100.00
5996;BME280;3026;53.612;7.278;2023-12-20T10:53:12;100745.69;;;7.37;100.00
5996;BME280;3026;53.612;7.278;2023-12-20T10:55:41;100731.56;;;7.16;100.00
5996;BME280;3026;53.612;7.278;2023-12-20T10:58:10;100707.69;;;7.01;100.00
5996;BME280;3026;53.612;7.278;2023-12-20T11:00:40;100704.13;;;6.83;100.00
5996;BME280;3026;53.612;7.278;2023-12-20T11:03:10;100718.56;;;6.74;100.00
5996;BME280;3026;53.612;7.278;2023-12-20T11:05:43;100703.91;;;6.67;100.00
5996;BME280;3026;53.612;7.278;2023-12-20T11:08:19;100712.19;;;6.65;100.00
5996;BME280;3026;53.612;7.278;2023-12-20T11:10:51;100703.31;;;6.73;100.00
5996;BME280;3026;53.612;7.278;2023-12-20T11:13:23;100717.94;;;6.80;100.00
5996;BME280;3026;53.612;7.278;2023-12-20T11:15:52;100702.63;;;6.89;100.00
5996;BME280;3026;53.612;7.278;2023-12-20T11:18:28;100713.31;;;6.90;100.00
5996;BME280;3026;53.612;7.278;2023-12-20T11:21:00;100700.31;;;6.94;100.00
5996;BME280;3026;53.612;7.278;2023-12-20T11:23:32;100685.63;;;6.96;100.00
5996;BME280;3026;53.612;7.278;2023-12-20T11:26:01;100699.19;;;6.96;100.00
5996;BME280;3026;53.612;7.278;2023-12-20T11:28:29;100708.00;;;6.98;100.00
5996;BME280;3026;53.612;7.278;2023-12-20T11:30:58;100691.44;;;7.01;100.00
5996;BME280;3026;53.612;7.278;2023-12-20T11:33:26;100696.94;;;7.10;100.00
5996;BME280;3026;53.612;7.278;2023-12-20T11:35:56;100688.19;;;7.16;100.00
5996;BME280;3026;53.612;7.278;2023-12-20T11:38:24;100698.09;;;7.25;100.00
5996;BME280;3026;53.612;7.278;2023-12-20T11:40:54;100703.28;;;7.36;100.00
5996;BME280;3026;53.612;7.278;2023-12-20T11:43:31;100690.81;;;7.43;100.00
5996;BME280;3026;53.612;7.278;2023-12-20T11:46:10;100701.03;;;7.49;100.00
5996;BME280;3026;53.612;7.278;2023-12-20T11:48:38;100692.28;;;7.55;100.00
5996;BME280;3026;53.612;7.278;2023-12-20T11:51:09;100696.38;;;7.59;100.00
5996;BME280;3026;53.612;7.278;2023-12-20T11:53:37;100692.34;;;7.64;100.00
5996;BME280;3026;53.612;7.278;2023-12-20T11:56:08;100694.44;;;7.70;100.00
5996;BME280;3026;53.612;7.278;2023-12-20T11:58:37;100680.38;;;7.74;100.00
5996;BME280;3026;53.612;7.278;2023-12-20T12:01:04;100688.06;;;7.79;100.00
5996;BME280;3026;53.612;7.278;2023-12-20T12:03:33;100675.88;;;7.83;100.00
5996;BME280;3026;53.612;7.278;2023-12-20T12:06:01;100688.09;;;7.87;100.00
5996;BME280;3026;53.612;7.278;2023-12-20T12:08:29;100667.78;;;7.91;100.00
5996;BME280;3026;53.612;7.278;2023-12-20T12:10:57;100665.75;;;7.93;100.00
5996;BME280;3026;53.612;7.278;2023-12-20T12:13:26;100663.72;;;7.95;100.00
5996;BME280;3026;53.612;7.278;2023-12-20T12:15:54;100670.56;;;7.99;100.00
5996;BME280;3026;53.612;7.278;2023-12-20T12:18:21;100674.13;;;8.00;100.00
5996;BME280;3026;53.612;7.278;2023-12-20T12:20:49;100674.25;;;7.98;100.00
5996;BME280;3026;53.612;7.278;2023-12-20T12:23:22;100666.28;;;7.97;100.00
5996;BME280;3026;53.612;7.278;2023-12-20T12:25:50;100667.13;;;7.97;100.00
5996;BME280;3026;53.612;7.278;2023-12-20T12:28:19;100681.44;;;7.99;100.00
5996;BME280;3026;53.612;7.278;2023-12-20T12:30:59;100680.03;;;7.95;100.00
5996;BME280;3026;53.612;7.278;2023-12-20T12:33:26;100663.72;;;7.95;100.00
5996;BME280;3026;53.612;7.278;2023-12-20T12:35:55;100654.91;;;7.93;100.00
5996;BME280;3026;53.612;7.278;2023-12-20T12:38:22;100659.47;;;7.93;100.00
5996;BME280;3026;53.612;7.278;2023-12-20T12:40:52;100666.09;;;7.90;100.00
5996;BME280;3026;53.612;7.278;2023-12-20T12:43:20;100666.53;;;7.85;100.00
5996;BME280;3026;53.612;7.278;2023-12-20T12:45:49;100669.59;;;7.82;100.00
5996;BME280;3026;53.612;7.278;2023-12-20T12:48:17;100666.34;;;7.79;100.00
5996;BME280;3026;53.612;7.278;2023-12-20T12:50:45;100659.91;;;7.80;100.00
5996;BME280;3026;53.612;7.278;2023-12-20T12:53:13;100668.06;;;7.80;100.00
5996;BME280;3026;53.612;7.278;2023-12-20T12:55:43;100675.50;;;7.78;100.00
5996;BME280;3026;53.612;7.278;2023-12-20T12:58:11;100672.78;;;7.78;100.00
5996;BME280;3026;53.612;7.278;2023-12-20T13:00:39;100676.81;;;7.74;100.00
5996;BME280;3026;53.612;7.278;2023-12-20T13:03:08;100669.69;;;7.73;100.00
5996;BME280;3026;53.612;7.278;2023-12-20T13:05:38;100673.41;;;7.72;100.00
5996;BME280;3026;53.612;7.278;2023-12-20T13:08:06;100673.56;;;7.70;100.00
5996;BME280;3026;53.612;7.278;2023-12-20T13:10:33;100674.59;;;7.69;100.00
5996;BME280;3026;53.612;7.278;2023-12-20T13:13:00;100674.34;;;7.63;100.00
5996;BME280;3026;53.612;7.278;2023-12-20T13:15:29;100668.41;;;7.59;100.00
5996;BME280;3026;53.612;7.278;2023-12-20T13:17:57;100676.69;;;7.57;100.00